sensor_id;sensor_type;location;lat;lon;timestamp;P1;durP1;ratioP1;P2;durP2;ratioP2
20476;SDS011;10397;50.948;11.092;2022-08-19T00:00:36;20.62;;;18.77;;
20476;SDS011;10397;50.948;11.092;2022-08-19T00:03:07;22.60;;;20.40;;
20476;SDS011;10397;50.948;11.092;2022-08-19T00:05:38;23.98;;;21.87;;
20476;SDS011;10397;50.948;11.092;2022-08-19T00:08:09;22.82;;;20.60;;
20476;SDS011;10397;50.948;11.092;2022-08-19T00:10:40;22.40;;;20.15;;
20476;SDS011;10397;50.948;11.092;2022-08-19T00:13:12;23.67;;;21.52;;
20476;SDS011;10397;50.948;11.092;2022-08-19T00:15:43;21.87;;;19.93;;
20476;SDS011;10397;50.948;11.092;2022-08-19T00:18:14;24.03;;;21.53;;
20476;SDS011;10397;50.948;11.092;2022-08-19T00:20:46;22.75;;;20.50;;
20476;SDS011;10397;50.948;11.092;2022-08-19T00:23:17;22.77;;;20.65;;
20476;SDS011;10397;50.948;11.092;2022-08-19T00:25:48;23.73;;;21.52;;
20476;SDS011;10397;50.948;11.092;2022-08-19T00:28:20;19.67;;;17.77;;
20476;SDS011;10397;50.948;11.092;2022-08-19T00:30:51;19.73;;;17.77;;
20476;SDS011;10397;50.948;11.092;2022-08-19T00:33:23;14.35;;;13.35;;
20476;SDS011;10397;50.948;11.092;2022-08-19T00:35:55;16.85;;;15.50;;
20476;SDS011;10397;50.948;11.092;2022-08-19T00:38:26;15.58;;;14.25;;
20476;SDS011;10397;50.948;11.092;2022-08-19T00:40:57;14.98;;;13.60;;
20476;SDS011;10397;50.948;11.092;2022-08-19T00:43:28;14.40;;;13.30;;
20476;SDS011;10397;50.948;11.092;2022-08-19T00:46:00;13.32;;;12.43;;
20476;SDS011;10397;50.948;11.092;2022-08-19T00:48:31;13.67;;;12.63;;
20476;SDS011;10397;50.948;11.092;2022-08-19T00:51:02;12.23;;;11.33;;
20476;SDS011;10397;50.948;11.092;2022-08-19T00:53:33;11.68;;;10.80;;
20476;SDS011;10397;50.948;11.092;2022-08-19T00:56:04;11.67;;;10.87;;
20476;SDS011;10397;50.948;11.092;2022-08-19T00:58:34;12.63;;;11.60;;
20476;SDS011;10397;50.948;11.092;2022-08-19T01:01:06;11.57;;;10.58;;
20476;SDS011;10397;50.948;11.092;2022-08-19T01:03:37;12.73;;;11.37;;
20476;SDS011;10397;50.948;11.092;2022-08-19T01:06:08;11.43;;;10.63;;
20476;SDS011;10397;50.948;11.092;2022-08-19T01:08:39;11.43;;;10.53;;
20476;SDS011;10397;50.948;11.092;2022-08-19T01:11:09;12.27;;;11.03;;
20476;SDS011;10397;50.948;11.092;2022-08-19T01:13:41;11.33;;;10.53;;
20476;SDS011;10397;50.948;11.092;2022-08-19T01:16:12;11.40;;;10.35;;
20476;SDS011;10397;50.948;11.092;2022-08-19T01:18:44;12.30;;;10.55;;
20476;SDS011;10397;50.948;11.092;2022-08-19T01:21:30;11.55;;;10.65;;
20476;SDS011;10397;50.948;11.092;2022-08-19T01:24:03;12.60;;;11.43;;
20476;SDS011;10397;50.948;11.092;2022-08-19T01:26:38;11.85;;;10.90;;
20476;SDS011;10397;50.948;11.092;2022-08-19T01:29:08;12.13;;;11.23;;
20476;SDS011;10397;50.948;11.092;2022-08-19T01:31:39;13.00;;;11.95;;
20476;SDS011;10397;50.948;11.092;2022-08-19T01:34:10;11.12;;;10.23;;
20476;SDS011;10397;50.948;11.092;2022-08-19T01:36:42;12.87;;;11.70;;
20476;SDS011;10397;50.948;11.092;2022-08-19T01:39:13;13.32;;;12.23;;
20476;SDS011;10397;50.948;11.092;2022-08-19T01:41:43;12.83;;;11.73;;
20476;SDS011;10397;50.948;11.092;2022-08-19T01:44:14;14.93;;;13.72;;
20476;SDS011;10397;50.948;11.092;2022-08-19T01:46:45;14.63;;;12.43;;
20476;SDS011;10397;50.948;11.092;2022-08-19T01:49:17;12.63;;;11.60;;
20476;SDS011;10397;50.948;11.092;2022-08-19T01:51:47;13.25;;;12.07;;
20476;SDS011;10397;50.948;11.092;2022-08-19T01:54:18;12.73;;;11.73;;
20476;SDS011;10397;50.948;11.092;2022-08-19T01:56:50;13.10;;;12.10;;
20476;SDS011;10397;50.948;11.092;2022-08-19T01:59:20;13.60;;;12.13;;
20476;SDS011;10397;50.948;11.092;2022-08-19T02:01:50;12.93;;;11.83;;
20476;SDS011;10397;50.948;11.092;2022-08-19T02:04:22;11.57;;;10.58;;
20476;SDS011;10397;50.948;11.092;2022-08-19T02:06:53;12.40;;;11.47;;
20476;SDS011;10397;50.948;11.092;2022-08-19T02:09:24;12.00;;;11.10;;
20476;SDS011;10397;50.948;11.092;2022-08-19T02:11:55;14.43;;;13.18;;
20476;SDS011;10397;50.948;11.092;2022-08-19T02:14:27;14.58;;;13.65;;
20476;SDS011;10397;50.948;11.092;2022-08-19T02:16:59;14.05;;;13.08;;
20476;SDS011;10397;50.948;11.092;2022-08-19T02:19:30;14.38;;;13.28;;
20476;SDS011;10397;50.948;11.092;2022-08-19T02:22:01;12.93;;;11.93;;
20476;SDS011;10397;50.948;11.092;2022-08-19T02:24:33;12.85;;;11.75;;
20476;SDS011;10397;50.948;11.092;2022-08-19T02:27:04;13.40;;;11.97;;
20476;SDS011;10397;50.948;11.092;2022-08-19T02:29:35;11.65;;;10.75;;
20476;SDS011;10397;50.948;11.092;2022-08-19T02:32:07;14.87;;;13.48;;
20476;SDS011;10397;50.948;11.092;2022-08-19T02:34:39;12.53;;;11.38;;
20476;SDS011;10397;50.948;11.092;2022-08-19T02:37:11;13.78;;;12.68;;
20476;SDS011;10397;50.948;11.092;2022-08-19T02:39:44;13.67;;;12.67;;
20476;SDS011;10397;50.948;11.092;2022-08-19T02:42:15;13.77;;;12.13;;
20476;SDS011;10397;50.948;11.092;2022-08-19T02:44:47;13.78;;;12.35;;
20476;SDS011;10397;50.948;11.092;2022-08-19T02:47:18;11.93;;;11.12;;
20476;SDS011;10397;50.948;11.092;2022-08-19T02:49:49;12.13;;;11.08;;
20476;SDS011;10397;50.948;11.092;2022-08-19T02:52:20;11.77;;;10.87;;
20476;SDS011;10397;50.948;11.092;2022-08-19T02:54:51;13.13;;;12.07;;
20476;SDS011;10397;50.948;11.092;2022-08-19T02:57:23;13.95;;;12.85;;
20476;SDS011;10397;50.948;11.092;2022-08-19T02:59:53;13.83;;;12.83;;
20476;SDS011;10397;50.948;11.092;2022-08-19T03:02:24;12.45;;;11.55;;
20476;SDS011;10397;50.948;11.092;2022-08-19T03:04:55;14.60;;;13.40;;
20476;SDS011;10397;50.948;11.092;2022-08-19T03:07:26;12.17;;;11.17;;
20476;SDS011;10397;50.948;11.092;2022-08-19T03:09:57;12.60;;;11.67;;
20476;SDS011;10397;50.948;11.092;2022-08-19T03:12:28;13.33;;;12.43;;
20476;SDS011;10397;50.948;11.092;2022-08-19T03:14:59;12.90;;;12.00;;
20476;SDS011;10397;50.948;11.092;2022-08-19T03:17:31;13.45;;;12.25;;
20476;SDS011;10397;50.948;11.092;2022-08-19T03:20:03;13.13;;;12.13;;
20476;SDS011;10397;50.948;11.092;2022-08-19T03:22:33;15.68;;;14.15;;
20476;SDS011;10397;50.948;11.092;2022-08-19T03:25:05;15.15;;;13.95;;
20476;SDS011;10397;50.948;11.092;2022-08-19T03:27:36;14.98;;;13.78;;
20476;SDS011;10397;50.948;11.092;2022-08-19T03:30:08;15.93;;;14.53;;
20476;SDS011;10397;50.948;11.092;2022-08-19T03:32:39;16.97;;;15.55;;
20476;SDS011;10397;50.948;11.092;2022-08-19T03:35:10;18.92;;;17.20;;
20476;SDS011;10397;50.948;11.092;2022-08-19T03:37:42;19.07;;;17.12;;
20476;SDS011;10397;50.948;11.092;2022-08-19T03:40:13;17.12;;;15.55;;
20476;SDS011;10397;50.948;11.092;2022-08-19T03:42:44;17.77;;;16.27;;
20476;SDS011;10397;50.948;11.092;2022-08-19T03:45:15;17.02;;;15.50;;
20476;SDS011;10397;50.948;11.092;2022-08-19T03:47:46;16.53;;;15.07;;
20476;SDS011;10397;50.948;11.092;2022-08-19T03:50:17;16.65;;;15.10;;
20476;SDS011;10397;50.948;11.092;2022-08-19T03:52:50;17.32;;;15.90;;
20476;SDS011;10397;50.948;11.092;2022-08-19T03:55:20;16.37;;;14.85;;
20476;SDS011;10397;50.948;11.092;2022-08-19T03:57:51;17.32;;;15.68;;
20476;SDS011;10397;50.948;11.092;2022-08-19T04:00:23;17.90;;;15.78;;
20476;SDS011;10397;50.948;11.092;2022-08-19T04:02:54;16.97;;;15.68;;
20476;SDS011;10397;50.948;11.092;2022-08-19T04:05:26;16.60;;;15.30;;
20476;SDS011;10397;50.948;11.092;2022-08-19T04:07:56;16.30;;;14.73;;
20476;SDS011;10397;50.948;11.092;2022-08-19T04:10:27;18.25;;;15.70;;
20476;SDS011;10397;50.948;11.092;2022-08-19T04:12:58;15.47;;;13.83;;
20476;SDS011;10397;50.948;11.092;2022-08-19T04:15:29;15.13;;;13.80;;
20476;SDS011;10397;50.948;11.092;2022-08-19T04:17:59;16.10;;;14.83;;
20476;SDS011;10397;50.948;11.092;2022-08-19T04:20:30;22.70;;;16.53;;
20476;SDS011;10397;50.948;11.092;2022-08-19T04:23:02;17.42;;;15.95;;
20476;SDS011;10397;50.948;11.092;2022-08-19T04:25:40;15.95;;;14.58;;
20476;SDS011;10397;50.948;11.092;2022-08-19T04:28:11;17.10;;;15.60;;
20476;SDS011;10397;50.948;11.092;2022-08-19T04:30:42;19.27;;;17.67;;
20476;SDS011;10397;50.948;11.092;2022-08-19T04:33:13;18.60;;;16.75;;
20476;SDS011;10397;50.948;11.092;2022-08-19T04:35:45;19.07;;;17.27;;
20476;SDS011;10397;50.948;11.092;2022-08-19T04:38:15;19.90;;;18.00;;
20476;SDS011;10397;50.948;11.092;2022-08-19T04:40:47;19.55;;;17.75;;
20476;SDS011;10397;50.948;11.092;2022-08-19T04:43:18;18.60;;;17.07;;
20476;SDS011;10397;50.948;11.092;2022-08-19T04:45:50;19.48;;;17.82;;
20476;SDS011;10397;50.948;11.092;2022-08-19T04:48:22;18.50;;;16.87;;
20476;SDS011;10397;50.948;11.092;2022-08-19T04:50:56;20.50;;;18.67;;
20476;SDS011;10397;50.948;11.092;2022-08-19T04:53:27;20.82;;;18.80;;
20476;SDS011;10397;50.948;11.092;2022-08-19T04:55:58;21.07;;;18.95;;
20476;SDS011;10397;50.948;11.092;2022-08-19T04:58:28;20.53;;;18.90;;
20476;SDS011;10397;50.948;11.092;2022-08-19T05:01:00;20.12;;;18.45;;
20476;SDS011;10397;50.948;11.092;2022-08-19T05:03:31;19.62;;;17.92;;
20476;SDS011;10397;50.948;11.092;2022-08-19T05:06:06;20.08;;;18.15;;
20476;SDS011;10397;50.948;11.092;2022-08-19T05:08:36;21.57;;;19.77;;
20476;SDS011;10397;50.948;11.092;2022-08-19T05:11:13;20.45;;;18.60;;
20476;SDS011;10397;50.948;11.092;2022-08-19T05:13:43;19.67;;;17.87;;
20476;SDS011;10397;50.948;11.092;2022-08-19T05:16:14;19.75;;;18.02;;
20476;SDS011;10397;50.948;11.092;2022-08-19T05:18:44;23.07;;;20.60;;
20476;SDS011;10397;50.948;11.092;2022-08-19T05:21:33;22.27;;;20.13;;
20476;SDS011;10397;50.948;11.092;2022-08-19T05:24:22;20.50;;;18.37;;
20476;SDS011;10397;50.948;11.092;2022-08-19T05:26:53;25.30;;;21.23;;
20476;SDS011;10397;50.948;11.092;2022-08-19T05:29:24;25.67;;;21.60;;
20476;SDS011;10397;50.948;11.092;2022-08-19T05:31:54;23.70;;;21.27;;
20476;SDS011;10397;50.948;11.092;2022-08-19T05:34:25;24.15;;;21.77;;
20476;SDS011;10397;50.948;11.092;2022-08-19T05:36:56;23.30;;;20.87;;
20476;SDS011;10397;50.948;11.092;2022-08-19T05:39:27;24.02;;;21.70;;
20476;SDS011;10397;50.948;11.092;2022-08-19T05:41:59;22.70;;;20.55;;
20476;SDS011;10397;50.948;11.092;2022-08-19T05:44:29;24.07;;;21.87;;
20476;SDS011;10397;50.948;11.092;2022-08-19T05:47:00;24.30;;;21.95;;
20476;SDS011;10397;50.948;11.092;2022-08-19T05:49:30;22.83;;;20.70;;
20476;SDS011;10397;50.948;11.092;2022-08-19T05:52:01;24.47;;;21.93;;
20476;SDS011;10397;50.948;11.092;2022-08-19T05:54:31;23.90;;;21.43;;
20476;SDS011;10397;50.948;11.092;2022-08-19T05:57:02;21.95;;;20.10;;
20476;SDS011;10397;50.948;11.092;2022-08-19T05:59:33;23.02;;;20.95;;
20476;SDS011;10397;50.948;11.092;2022-08-19T06:02:05;24.50;;;21.90;;
20476;SDS011;10397;50.948;11.092;2022-08-19T06:04:36;24.45;;;20.27;;
20476;SDS011;10397;50.948;11.092;2022-08-19T06:07:07;23.60;;;21.37;;
20476;SDS011;10397;50.948;11.092;2022-08-19T06:09:39;23.90;;;21.60;;
20476;SDS011;10397;50.948;11.092;2022-08-19T06:12:09;23.73;;;21.33;;
20476;SDS011;10397;50.948;11.092;2022-08-19T06:14:41;26.87;;;20.72;;
20476;SDS011;10397;50.948;11.092;2022-08-19T06:17:12;29.05;;;21.52;;
20476;SDS011;10397;50.948;11.092;2022-08-19T06:19:44;22.85;;;20.70;;
20476;SDS011;10397;50.948;11.092;2022-08-19T06:22:15;21.67;;;19.43;;
20476;SDS011;10397;50.948;11.092;2022-08-19T06:24:47;20.35;;;18.23;;
20476;SDS011;10397;50.948;11.092;2022-08-19T06:27:18;21.05;;;17.42;;
20476;SDS011;10397;50.948;11.092;2022-08-19T06:29:49;19.77;;;18.07;;
20476;SDS011;10397;50.948;11.092;2022-08-19T06:32:20;17.92;;;16.32;;
20476;SDS011;10397;50.948;11.092;2022-08-19T06:34:51;17.60;;;16.10;;
20476;SDS011;10397;50.948;11.092;2022-08-19T06:37:22;18.50;;;16.77;;
20476;SDS011;10397;50.948;11.092;2022-08-19T06:39:53;18.45;;;14.63;;
20476;SDS011;10397;50.948;11.092;2022-08-19T06:42:25;18.62;;;15.08;;
20476;SDS011;10397;50.948;11.092;2022-08-19T06:44:56;15.25;;;13.58;;
20476;SDS011;10397;50.948;11.092;2022-08-19T06:47:28;12.88;;;11.83;;
20476;SDS011;10397;50.948;11.092;2022-08-19T06:49:59;14.40;;;11.68;;
20476;SDS011;10397;50.948;11.092;2022-08-19T06:52:32;11.10;;;9.77;;
20476;SDS011;10397;50.948;11.092;2022-08-19T06:55:03;13.83;;;12.45;;
20476;SDS011;10397;50.948;11.092;2022-08-19T06:57:34;12.13;;;10.95;;
20476;SDS011;10397;50.948;11.092;2022-08-19T07:00:06;13.43;;;12.07;;
20476;SDS011;10397;50.948;11.092;2022-08-19T07:02:40;10.90;;;10.00;;
20476;SDS011;10397;50.948;11.092;2022-08-19T07:05:11;12.30;;;11.03;;
20476;SDS011;10397;50.948;11.092;2022-08-19T07:07:42;13.50;;;9.33;;
20476;SDS011;10397;50.948;11.092;2022-08-19T07:10:14;9.30;;;8.40;;
20476;SDS011;10397;50.948;11.092;2022-08-19T07:12:45;10.30;;;9.28;;
20476;SDS011;10397;50.948;11.092;2022-08-19T07:15:16;8.45;;;7.75;;
20476;SDS011;10397;50.948;11.092;2022-08-19T07:17:47;10.83;;;9.07;;
20476;SDS011;10397;50.948;11.092;2022-08-19T07:20:18;9.10;;;8.20;;
20476;SDS011;10397;50.948;11.092;2022-08-19T07:22:49;8.43;;;7.50;;
20476;SDS011;10397;50.948;11.092;2022-08-19T07:25:21;10.20;;;7.95;;
20476;SDS011;10397;50.948;11.092;2022-08-19T07:27:52;8.50;;;7.62;;
20476;SDS011;10397;50.948;11.092;2022-08-19T07:30:24;7.97;;;7.20;;
20476;SDS011;10397;50.948;11.092;2022-08-19T07:32:55;8.50;;;7.70;;
20476;SDS011;10397;50.948;11.092;2022-08-19T07:35:26;9.23;;;7.67;;
20476;SDS011;10397;50.948;11.092;2022-08-19T07:37:57;9.25;;;8.35;;
20476;SDS011;10397;50.948;11.092;2022-08-19T07:40:27;12.20;;;8.03;;
20476;SDS011;10397;50.948;11.092;2022-08-19T07:42:58;7.83;;;7.08;;
20476;SDS011;10397;50.948;11.092;2022-08-19T07:45:30;9.05;;;6.47;;
20476;SDS011;10397;50.948;11.092;2022-08-19T07:48:02;7.20;;;6.37;;
20476;SDS011;10397;50.948;11.092;2022-08-19T07:50:33;8.50;;;6.78;;
20476;SDS011;10397;50.948;11.092;2022-08-19T07:53:04;6.62;;;6.03;;
20476;SDS011;10397;50.948;11.092;2022-08-19T07:55:36;6.78;;;5.53;;
20476;SDS011;10397;50.948;11.092;2022-08-19T07:58:07;5.65;;;5.25;;
20476;SDS011;10397;50.948;11.092;2022-08-19T08:00:38;5.95;;;5.45;;
20476;SDS011;10397;50.948;11.092;2022-08-19T08:03:09;5.43;;;5.03;;
20476;SDS011;10397;50.948;11.092;2022-08-19T08:05:40;5.17;;;4.67;;
20476;SDS011;10397;50.948;11.092;2022-08-19T08:08:29;5.97;;;5.03;;
20476;SDS011;10397;50.948;11.092;2022-08-19T08:11:18;6.27;;;5.27;;
20476;SDS011;10397;50.948;11.092;2022-08-19T08:13:48;6.17;;;5.33;;
20476;SDS011;10397;50.948;11.092;2022-08-19T08:16:20;5.85;;;4.53;;
20476;SDS011;10397;50.948;11.092;2022-08-19T08:18:50;5.67;;;5.20;;
20476;SDS011;10397;50.948;11.092;2022-08-19T08:21:21;5.50;;;4.20;;
20476;SDS011;10397;50.948;11.092;2022-08-19T08:23:53;5.17;;;3.72;;
20476;SDS011;10397;50.948;11.092;2022-08-19T08:26:24;4.83;;;3.67;;
20476;SDS011;10397;50.948;11.092;2022-08-19T08:28:56;5.92;;;3.90;;
20476;SDS011;10397;50.948;11.092;2022-08-19T08:31:27;8.50;;;3.87;;
20476;SDS011;10397;50.948;11.092;2022-08-19T08:33:58;3.70;;;2.90;;
20476;SDS011;10397;50.948;11.092;2022-08-19T08:36:30;6.05;;;3.15;;
20476;SDS011;10397;50.948;11.092;2022-08-19T08:39:01;5.00;;;3.10;;
20476;SDS011;10397;50.948;11.092;2022-08-19T08:42:16;7.60;;;2.70;;
20476;SDS011;10397;50.948;11.092;2022-08-19T08:44:05;4.33;;;2.93;;
20476;SDS011;10397;50.948;11.092;2022-08-19T08:46:41;3.77;;;2.47;;
20476;SDS011;10397;50.948;11.092;2022-08-19T08:52:13;5.17;;;2.53;;
20476;SDS011;10397;50.948;11.092;2022-08-19T08:54:43;4.65;;;2.40;;
20476;SDS011;10397;50.948;11.092;2022-08-19T08:57:21;6.55;;;2.60;;
20476;SDS011;10397;50.948;11.092;2022-08-19T08:59:50;4.80;;;2.20;;
20476;SDS011;10397;50.948;11.092;2022-08-19T09:02:21;2.22;;;2.02;;
20476;SDS011;10397;50.948;11.092;2022-08-19T09:04:53;4.33;;;2.50;;
20476;SDS011;10397;50.948;11.092;2022-08-19T09:07:34;9.00;;;2.27;;
20476;SDS011;10397;50.948;11.092;2022-08-19T09:12:54;2.37;;;2.00;;
20476;SDS011;10397;50.948;11.092;2022-08-19T09:15:29;5.90;;;2.60;;
20476;SDS011;10397;50.948;11.092;2022-08-19T09:17:59;7.08;;;2.77;;
20476;SDS011;10397;50.948;11.092;2022-08-19T09:20:30;4.08;;;2.27;;
20476;SDS011;10397;50.948;11.092;2022-08-19T09:23:01;4.17;;;2.17;;
20476;SDS011;10397;50.948;11.092;2022-08-19T09:25:32;5.23;;;1.97;;
20476;SDS011;10397;50.948;11.092;2022-08-19T09:28:03;4.30;;;2.02;;
20476;SDS011;10397;50.948;11.092;2022-08-19T09:30:39;2.15;;;1.90;;
20476;SDS011;10397;50.948;11.092;2022-08-19T09:33:08;2.50;;;2.10;;
20476;SDS011;10397;50.948;11.092;2022-08-19T09:35:39;2.52;;;1.37;;
20476;SDS011;10397;50.948;11.092;2022-08-19T09:38:11;2.67;;;1.30;;
20476;SDS011;10397;50.948;11.092;2022-08-19T09:40:42;4.25;;;1.30;;
20476;SDS011;10397;50.948;11.092;2022-08-19T09:43:14;4.22;;;1.80;;
20476;SDS011;10397;50.948;11.092;2022-08-19T09:45:46;4.75;;;1.70;;
20476;SDS011;10397;50.948;11.092;2022-08-19T09:48:17;7.80;;;1.62;;
20476;SDS011;10397;50.948;11.092;2022-08-19T09:50:49;11.73;;;1.90;;
20476;SDS011;10397;50.948;11.092;2022-08-19T09:53:20;2.35;;;1.15;;
20476;SDS011;10397;50.948;11.092;2022-08-19T09:55:52;3.87;;;1.15;;
20476;SDS011;10397;50.948;11.092;2022-08-19T09:58:23;3.92;;;1.12;;
20476;SDS011;10397;50.948;11.092;2022-08-19T10:00:54;3.40;;;1.33;;
20476;SDS011;10397;50.948;11.092;2022-08-19T10:03:25;4.37;;;1.22;;
20476;SDS011;10397;50.948;11.092;2022-08-19T10:05:56;2.45;;;1.55;;
20476;SDS011;10397;50.948;11.092;2022-08-19T10:08:35;1.77;;;1.15;;
20476;SDS011;10397;50.948;11.092;2022-08-19T10:11:03;1.93;;;1.00;;
20476;SDS011;10397;50.948;11.092;2022-08-19T10:13:34;3.50;;;1.40;;
20476;SDS011;10397;50.948;11.092;2022-08-19T10:16:07;3.67;;;1.47;;
20476;SDS011;10397;50.948;11.092;2022-08-19T10:18:36;1.77;;;1.00;;
20476;SDS011;10397;50.948;11.092;2022-08-19T10:21:08;2.70;;;1.05;;
20476;SDS011;10397;50.948;11.092;2022-08-19T10:23:42;3.87;;;1.30;;
20476;SDS011;10397;50.948;11.092;2022-08-19T10:26:12;5.20;;;1.30;;
20476;SDS011;10397;50.948;11.092;2022-08-19T10:28:42;5.80;;;1.32;;
20476;SDS011;10397;50.948;11.092;2022-08-19T10:31:17;2.52;;;1.60;;
20476;SDS011;10397;50.948;11.092;2022-08-19T10:33:47;2.47;;;1.60;;
20476;SDS011;10397;50.948;11.092;2022-08-19T10:36:19;2.17;;;1.17;;
20476;SDS011;10397;50.948;11.092;2022-08-19T10:38:49;4.77;;;1.30;;
20476;SDS011;10397;50.948;11.092;2022-08-19T10:41:20;3.92;;;1.37;;
20476;SDS011;10397;50.948;11.092;2022-08-19T10:43:50;7.13;;;1.30;;
20476;SDS011;10397;50.948;11.092;2022-08-19T10:46:22;2.00;;;1.40;;
20476;SDS011;10397;50.948;11.092;2022-08-19T10:48:51;4.90;;;1.40;;
20476;SDS011;10397;50.948;11.092;2022-08-19T10:51:22;5.90;;;1.20;;
20476;SDS011;10397;50.948;11.092;2022-08-19T10:54:11;4.10;;;1.57;;
20476;SDS011;10397;50.948;11.092;2022-08-19T10:56:43;7.22;;;1.57;;
20476;SDS011;10397;50.948;11.092;2022-08-19T10:59:20;4.00;;;1.77;;
20476;SDS011;10397;50.948;11.092;2022-08-19T11:01:53;4.47;;;1.47;;
20476;SDS011;10397;50.948;11.092;2022-08-19T11:04:23;3.80;;;1.82;;
20476;SDS011;10397;50.948;11.092;2022-08-19T11:06:55;3.98;;;2.25;;
20476;SDS011;10397;50.948;11.092;2022-08-19T11:09:26;3.20;;;2.10;;
20476;SDS011;10397;50.948;11.092;2022-08-19T11:11:57;8.45;;;2.77;;
20476;SDS011;10397;50.948;11.092;2022-08-19T11:14:29;6.95;;;3.87;;
20476;SDS011;10397;50.948;11.092;2022-08-19T11:17:00;5.65;;;3.75;;
20476;SDS011;10397;50.948;11.092;2022-08-19T11:19:32;5.90;;;4.25;;
20476;SDS011;10397;50.948;11.092;2022-08-19T11:22:02;6.10;;;4.37;;
20476;SDS011;10397;50.948;11.092;2022-08-19T11:24:32;4.30;;;3.67;;
20476;SDS011;10397;50.948;11.092;2022-08-19T11:27:08;4.25;;;3.60;;
20476;SDS011;10397;50.948;11.092;2022-08-19T11:29:35;5.37;;;4.70;;
20476;SDS011;10397;50.948;11.092;2022-08-19T11:32:06;4.65;;;4.20;;
20476;SDS011;10397;50.948;11.092;2022-08-19T11:34:36;5.58;;;4.55;;
20476;SDS011;10397;50.948;11.092;2022-08-19T11:37:07;5.37;;;4.53;;
20476;SDS011;10397;50.948;11.092;2022-08-19T11:39:38;6.60;;;4.58;;
20476;SDS011;10397;50.948;11.092;2022-08-19T11:42:10;7.92;;;4.60;;
20476;SDS011;10397;50.948;11.092;2022-08-19T11:44:59;4.10;;;3.80;;
20476;SDS011;10397;50.948;11.092;2022-08-19T11:47:31;5.35;;;4.03;;
20476;SDS011;10397;50.948;11.092;2022-08-19T11:50:02;6.33;;;3.33;;
20476;SDS011;10397;50.948;11.092;2022-08-19T11:52:33;5.50;;;4.60;;
20476;SDS011;10397;50.948;11.092;2022-08-19T11:55:04;4.60;;;3.90;;
20476;SDS011;10397;50.948;11.092;2022-08-19T11:57:35;4.95;;;3.47;;
20476;SDS011;10397;50.948;11.092;2022-08-19T12:00:07;4.00;;;2.55;;
20476;SDS011;10397;50.948;11.092;2022-08-19T12:02:37;5.47;;;3.30;;
20476;SDS011;10397;50.948;11.092;2022-08-19T12:05:08;4.10;;;3.33;;
20476;SDS011;10397;50.948;11.092;2022-08-19T12:07:40;3.67;;;3.22;;
20476;SDS011;10397;50.948;11.092;2022-08-19T12:10:11;3.40;;;2.77;;
20476;SDS011;10397;50.948;11.092;2022-08-19T12:12:42;4.00;;;3.60;;
20476;SDS011;10397;50.948;11.092;2022-08-19T12:15:14;5.40;;;3.95;;
20476;SDS011;10397;50.948;11.092;2022-08-19T12:17:45;3.85;;;3.20;;
20476;SDS011;10397;50.948;11.092;2022-08-19T12:20:17;4.10;;;2.67;;
20476;SDS011;10397;50.948;11.092;2022-08-19T12:22:48;5.72;;;2.75;;
20476;SDS011;10397;50.948;11.092;2022-08-19T12:25:19;6.65;;;2.83;;
20476;SDS011;10397;50.948;11.092;2022-08-19T12:27:51;2.95;;;2.27;;
20476;SDS011;10397;50.948;11.092;2022-08-19T12:30:22;7.17;;;1.90;;
20476;SDS011;10397;50.948;11.092;2022-08-19T12:32:53;3.30;;;1.87;;
20476;SDS011;10397;50.948;11.092;2022-08-19T12:35:25;3.10;;;2.10;;
20476;SDS011;10397;50.948;11.092;2022-08-19T12:37:56;3.87;;;2.15;;
20476;SDS011;10397;50.948;11.092;2022-08-19T12:40:28;3.95;;;1.45;;
20476;SDS011;10397;50.948;11.092;2022-08-19T12:42:59;4.00;;;1.82;;
20476;SDS011;10397;50.948;11.092;2022-08-19T12:45:30;3.22;;;2.10;;
20476;SDS011;10397;50.948;11.092;2022-08-19T12:48:02;4.05;;;1.90;;
20476;SDS011;10397;50.948;11.092;2022-08-19T12:50:33;4.57;;;2.20;;
20476;SDS011;10397;50.948;11.092;2022-08-19T12:53:04;3.42;;;1.82;;
20476;SDS011;10397;50.948;11.092;2022-08-19T12:55:36;2.42;;;1.77;;
20476;SDS011;10397;50.948;11.092;2022-08-19T12:58:06;2.87;;;1.43;;
20476;SDS011;10397;50.948;11.092;2022-08-19T13:00:38;3.10;;;1.92;;
20476;SDS011;10397;50.948;11.092;2022-08-19T13:03:08;4.60;;;1.90;;
20476;SDS011;10397;50.948;11.092;2022-08-19T13:05:39;3.35;;;1.90;;
20476;SDS011;10397;50.948;11.092;2022-08-19T13:08:11;2.05;;;1.40;;
20476;SDS011;10397;50.948;11.092;2022-08-19T13:10:42;3.08;;;1.62;;
20476;SDS011;10397;50.948;11.092;2022-08-19T13:13:14;3.25;;;1.52;;
20476;SDS011;10397;50.948;11.092;2022-08-19T13:15:45;2.55;;;1.32;;
20476;SDS011;10397;50.948;11.092;2022-08-19T13:18:17;7.60;;;1.67;;
20476;SDS011;10397;50.948;11.092;2022-08-19T13:20:49;2.60;;;1.47;;
20476;SDS011;10397;50.948;11.092;2022-08-19T13:23:20;1.50;;;1.10;;
20476;SDS011;10397;50.948;11.092;2022-08-19T13:25:59;3.20;;;1.42;;
20476;SDS011;10397;50.948;11.092;2022-08-19T13:28:25;2.20;;;1.20;;
20476;SDS011;10397;50.948;11.092;2022-08-19T13:30:56;5.80;;;0.98;;
20476;SDS011;10397;50.948;11.092;2022-08-19T13:33:46;5.87;;;1.33;;
20476;SDS011;10397;50.948;11.092;2022-08-19T13:36:17;11.77;;;1.97;;
20476;SDS011;10397;50.948;11.092;2022-08-19T13:38:48;4.73;;;1.43;;
20476;SDS011;10397;50.948;11.092;2022-08-19T13:41:20;4.37;;;0.90;;
20476;SDS011;10397;50.948;11.092;2022-08-19T13:43:52;2.87;;;1.00;;
20476;SDS011;10397;50.948;11.092;2022-08-19T13:46:23;2.77;;;1.05;;
20476;SDS011;10397;50.948;11.092;2022-08-19T13:48:53;3.63;;;1.00;;
20476;SDS011;10397;50.948;11.092;2022-08-19T13:51:25;2.15;;;0.90;;
20476;SDS011;10397;50.948;11.092;2022-08-19T13:53:56;1.77;;;0.80;;
20476;SDS011;10397;50.948;11.092;2022-08-19T13:56:27;3.30;;;1.07;;
20476;SDS011;10397;50.948;11.092;2022-08-19T13:58:58;0.70;;;0.55;;
20476;SDS011;10397;50.948;11.092;2022-08-19T14:01:30;2.52;;;1.15;;
20476;SDS011;10397;50.948;11.092;2022-08-19T14:04:02;4.12;;;0.90;;
20476;SDS011;10397;50.948;11.092;2022-08-19T14:06:32;1.07;;;0.80;;
20476;SDS011;10397;50.948;11.092;2022-08-19T14:09:03;3.15;;;0.75;;
20476;SDS011;10397;50.948;11.092;2022-08-19T14:11:34;2.93;;;1.07;;
20476;SDS011;10397;50.948;11.092;2022-08-19T14:14:05;3.40;;;0.70;;
20476;SDS011;10397;50.948;11.092;2022-08-19T14:16:36;1.40;;;0.70;;
20476;SDS011;10397;50.948;11.092;2022-08-19T14:19:08;3.47;;;0.78;;
20476;SDS011;10397;50.948;11.092;2022-08-19T14:21:40;2.02;;;0.98;;
20476;SDS011;10397;50.948;11.092;2022-08-19T14:24:11;1.00;;;0.65;;
20476;SDS011;10397;50.948;11.092;2022-08-19T14:26:43;1.80;;;0.80;;
20476;SDS011;10397;50.948;11.092;2022-08-19T14:29:14;2.25;;;0.88;;
20476;SDS011;10397;50.948;11.092;2022-08-19T14:31:46;5.90;;;0.80;;
20476;SDS011;10397;50.948;11.092;2022-08-19T14:34:18;1.47;;;0.90;;
20476;SDS011;10397;50.948;11.092;2022-08-19T14:36:49;2.42;;;0.90;;
20476;SDS011;10397;50.948;11.092;2022-08-19T14:39:20;2.17;;;0.80;;
20476;SDS011;10397;50.948;11.092;2022-08-19T14:41:51;2.10;;;1.00;;
20476;SDS011;10397;50.948;11.092;2022-08-19T14:44:23;3.22;;;0.80;;
20476;SDS011;10397;50.948;11.092;2022-08-19T14:46:54;2.37;;;0.70;;
20476;SDS011;10397;50.948;11.092;2022-08-19T14:49:26;1.25;;;0.65;;
20476;SDS011;10397;50.948;11.092;2022-08-19T14:51:58;0.70;;;0.60;;